Frederike Selmer — V7QY8 — position and weather

sailwx.info

Track history (hours):
 
Tides and Currents Weather Stations Pressure Air Temp Water Temp Dewpoint Dewpoint Depression Visibility Wind Speed Wind Dir Waves Ship Positions

Frederike Selmer

Last reported at 2014-Nov-30 14:19 UTC. Time now 2014-Dec-18 04:12 UTC.
Position N 01°12' E 103°53'.
Warning: this ship's position is 17 days out of date.

Length 188 m; draft 10.7 m.

Type: Cargo ship. MMSI: 538090377.

Date/timePositionNaut miles runAvg speedWind from/ knotsBaromVisibWave heightAir tempDewpointWater temp
2014-Nov-30 14:19N 01°12' E 103°53'5 6.3
2014-Nov-30 13:28N 01°16' E 103°57'1 0.4
2014-Nov-30 12:08N 01°17' E 103°57'0 0.0
2014-Nov-30 11:29N 01°17' E 103°57'0 0.0
2014-Nov-30 10:20N 01°17' E 103°57'0 0.0
2014-Nov-30 09:32N 01°17' E 103°57'0 0.2
2014-Nov-30 08:20N 01°17' E 103°57'0 0.0
2014-Nov-30 07:32N 01°16' E 103°57'0 0.0
2014-Nov-30 06:14N 01°16' E 103°57'0 0.0
2014-Nov-30 05:23N 01°16' E 103°57'0 0.0
2014-Nov-30 04:26N 01°17' E 103°57'0 0.0
2014-Nov-30 03:28N 01°17' E 103°57'0 0.1
2014-Nov-30 02:32N 01°16' E 103°57'1 1.1
2014-Nov-30 01:33N 01°16' E 103°57'5 4.6
2014-Nov-30 00:32N 01°16' E 104°02'1210.5
2014-Nov-29 23:25N 01°18' E 104°13'  
2014-Nov-24 13:07N 22°00' E 119°42'1111.9
2014-Nov-24 12:12N 22°09' E 119°49'1911.1
2014-Nov-24 10:32N 22°24' E 119°60'1111.5
2014-Nov-24 09:33N 22°32' E 120°08'11 0.5
2014-Nov-23 10:22N 22°34' E 120°20'0 0.0
2014-Nov-23 09:28N 22°34' E 120°20'0 0.0
2014-Nov-23 08:22N 22°34' E 120°20'0 0.0
2014-Nov-23 07:28N 22°34' E 120°20'0 0.0
2014-Nov-23 03:25N 22°34' E 120°20'0 0.0
2014-Nov-23 02:13N 22°34' E 120°20'0 0.1
2014-Nov-23 01:25N 22°34' E 120°20'0 0.0
2014-Nov-23 00:33N 22°34' E 120°20'3 3.4
2014-Nov-22 23:34N 22°33' E 120°16'3 2.4
2014-Nov-22 22:29N 22°30' E 120°15'0 0.0
2014-Nov-22 21:29N 22°30' E 120°15'0 0.1
2014-Nov-22 20:29N 22°30' E 120°15'0 0.0
2014-Nov-22 19:23N 22°30' E 120°15'0 0.1
2014-Nov-22 18:29N 22°30' E 120°15'0 0.0
2014-Nov-22 17:23N 22°30' E 120°15'0 0.0
2014-Nov-22 16:29N 22°30' E 120°15'0 0.0
2014-Nov-22 15:17N 22°30' E 120°15'0 0.0
2014-Nov-22 14:11N 22°30' E 120°15'1 0.1
2014-Nov-22 10:25N 22°31' E 120°15'8 9.1
2014-Nov-22 09:33N 22°37' E 120°10'1111.4
2014-Nov-22 08:33N 22°47' E 120°04'  
Track history (hours):
 
Tides and Currents Weather Stations Pressure Air Temp Water Temp Dewpoint Dewpoint Depression Visibility Wind Speed Wind Dir Waves Ship Positions

Frederike Selmer

Last reported at 2014-Nov-30 14:19 UTC. Time now 2014-Dec-18 04:12 UTC.
Position N 01°12' E 103°53'.
Warning: this ship's position is 17 days out of date.

Length 188 m; draft 10.7 m.

Type: Cargo ship. MMSI: 538090377.

Date/timePositionNaut miles runAvg speedWind from/ knotsBaromVisibWave heightAir tempDewpointWater temp
2014-Nov-30 14:19N 01°12' E 103°53'5 6.3
2014-Nov-30 13:28N 01°16' E 103°57'1 0.4
2014-Nov-30 12:08N 01°17' E 103°57'0 0.0
2014-Nov-30 11:29N 01°17' E 103°57'0 0.0
2014-Nov-30 10:20N 01°17' E 103°57'0 0.0
2014-Nov-30 09:32N 01°17' E 103°57'0 0.2
2014-Nov-30 08:20N 01°17' E 103°57'0 0.0
2014-Nov-30 07:32N 01°16' E 103°57'0 0.0
2014-Nov-30 06:14N 01°16' E 103°57'0 0.0
2014-Nov-30 05:23N 01°16' E 103°57'0 0.0
2014-Nov-30 04:26N 01°17' E 103°57'0 0.0
2014-Nov-30 03:28N 01°17' E 103°57'0 0.1
2014-Nov-30 02:32N 01°16' E 103°57'1 1.1
2014-Nov-30 01:33N 01°16' E 103°57'5 4.6
2014-Nov-30 00:32N 01°16' E 104°02'1210.5
2014-Nov-29 23:25N 01°18' E 104°13'  
2014-Nov-24 13:07N 22°00' E 119°42'1111.9
2014-Nov-24 12:12N 22°09' E 119°49'1911.1
2014-Nov-24 10:32N 22°24' E 119°60'1111.5
2014-Nov-24 09:33N 22°32' E 120°08'11 0.5
2014-Nov-23 10:22N 22°34' E 120°20'0 0.0
2014-Nov-23 09:28N 22°34' E 120°20'0 0.0
2014-Nov-23 08:22N 22°34' E 120°20'0 0.0
2014-Nov-23 07:28N 22°34' E 120°20'0 0.0
2014-Nov-23 03:25N 22°34' E 120°20'0 0.0
2014-Nov-23 02:13N 22°34' E 120°20'0 0.1
2014-Nov-23 01:25N 22°34' E 120°20'0 0.0
2014-Nov-23 00:33N 22°34' E 120°20'3 3.4
2014-Nov-22 23:34N 22°33' E 120°16'3 2.4
2014-Nov-22 22:29N 22°30' E 120°15'0 0.0
2014-Nov-22 21:29N 22°30' E 120°15'0 0.1
2014-Nov-22 20:29N 22°30' E 120°15'0 0.0
2014-Nov-22 19:23N 22°30' E 120°15'0 0.1
2014-Nov-22 18:29N 22°30' E 120°15'0 0.0
2014-Nov-22 17:23N 22°30' E 120°15'0 0.0
2014-Nov-22 16:29N 22°30' E 120°15'0 0.0
2014-Nov-22 15:17N 22°30' E 120°15'0 0.0
2014-Nov-22 14:11N 22°30' E 120°15'1 0.1
2014-Nov-22 10:25N 22°31' E 120°15'8 9.1
2014-Nov-22 09:33N 22°37' E 120°10'1111.4
2014-Nov-22 08:33N 22°47' E 120°04'  

Dump ship's entire track history